sensor_id;sensor_type;location;lat;lon;timestamp;P1;durP1;ratioP1;P2;durP2;ratioP2
80152;SDS011;69475;51.196;4.542;2023-04-24T00:00:15;5.05;;;3.13;;
80152;SDS011;69475;51.196;4.542;2023-04-24T00:02:43;4.10;;;3.25;;
80152;SDS011;69475;51.196;4.542;2023-04-24T00:05:13;4.70;;;2.95;;
80152;SDS011;69475;51.196;4.542;2023-04-24T00:07:43;4.20;;;3.13;;
80152;SDS011;69475;51.196;4.542;2023-04-24T00:10:10;4.80;;;3.17;;
80152;SDS011;69475;51.196;4.542;2023-04-24T00:12:37;4.88;;;3.28;;
80152;SDS011;69475;51.196;4.542;2023-04-24T00:15:03;4.57;;;3.30;;
80152;SDS011;69475;51.196;4.542;2023-04-24T00:17:30;5.78;;;3.30;;
80152;SDS011;69475;51.196;4.542;2023-04-24T00:19:55;5.68;;;3.70;;
80152;SDS011;69475;51.196;4.542;2023-04-24T00:22:26;5.05;;;3.38;;
80152;SDS011;69475;51.196;4.542;2023-04-24T00:24:53;5.00;;;3.47;;
80152;SDS011;69475;51.196;4.542;2023-04-24T00:27:19;5.00;;;3.30;;
80152;SDS011;69475;51.196;4.542;2023-04-24T00:29:45;4.63;;;3.42;;
80152;SDS011;69475;51.196;4.542;2023-04-24T00:32:11;5.13;;;3.20;;
80152;SDS011;69475;51.196;4.542;2023-04-24T00:34:36;5.03;;;3.50;;
80152;SDS011;69475;51.196;4.542;2023-04-24T00:37:02;4.80;;;3.50;;
80152;SDS011;69475;51.196;4.542;2023-04-24T00:39:28;5.35;;;3.85;;
80152;SDS011;69475;51.196;4.542;2023-04-24T00:41:53;5.15;;;3.47;;
80152;SDS011;69475;51.196;4.542;2023-04-24T00:44:20;4.93;;;3.30;;
80152;SDS011;69475;51.196;4.542;2023-04-24T00:46:46;5.25;;;3.55;;
80152;SDS011;69475;51.196;4.542;2023-04-24T00:49:12;5.35;;;3.40;;
80152;SDS011;69475;51.196;4.542;2023-04-24T00:51:39;4.57;;;3.28;;
80152;SDS011;69475;51.196;4.542;2023-04-24T00:54:05;6.35;;;3.63;;
80152;SDS011;69475;51.196;4.542;2023-04-24T00:56:31;6.45;;;3.70;;
80152;SDS011;69475;51.196;4.542;2023-04-24T00:58:57;4.22;;;3.20;;
80152;SDS011;69475;51.196;4.542;2023-04-24T01:01:23;4.53;;;3.22;;
80152;SDS011;69475;51.196;4.542;2023-04-24T01:03:49;4.05;;;3.10;;
80152;SDS011;69475;51.196;4.542;2023-04-24T01:06:16;5.38;;;3.50;;
80152;SDS011;69475;51.196;4.542;2023-04-24T01:08:43;4.38;;;3.35;;
80152;SDS011;69475;51.196;4.542;2023-04-24T01:11:11;4.15;;;3.50;;
80152;SDS011;69475;51.196;4.542;2023-04-24T01:13:37;4.93;;;3.70;;
80152;SDS011;69475;51.196;4.542;2023-04-24T01:16:02;4.18;;;3.47;;
80152;SDS011;69475;51.196;4.542;2023-04-24T01:18:28;4.65;;;3.42;;
80152;SDS011;69475;51.196;4.542;2023-04-24T01:20:57;4.65;;;3.45;;
80152;SDS011;69475;51.196;4.542;2023-04-24T01:23:23;4.70;;;3.33;;
80152;SDS011;69475;51.196;4.542;2023-04-24T01:25:49;5.13;;;3.50;;
80152;SDS011;69475;51.196;4.542;2023-04-24T01:28:16;6.00;;;3.60;;
80152;SDS011;69475;51.196;4.542;2023-04-24T01:30:42;5.55;;;3.53;;
80152;SDS011;69475;51.196;4.542;2023-04-24T01:33:08;4.75;;;3.22;;
80152;SDS011;69475;51.196;4.542;2023-04-24T01:35:35;4.03;;;3.33;;
80152;SDS011;69475;51.196;4.542;2023-04-24T01:38:02;4.47;;;3.30;;
80152;SDS011;69475;51.196;4.542;2023-04-24T01:40:28;4.35;;;3.53;;
80152;SDS011;69475;51.196;4.542;2023-04-24T01:42:54;4.53;;;3.35;;
80152;SDS011;69475;51.196;4.542;2023-04-24T01:45:20;4.25;;;3.30;;
80152;SDS011;69475;51.196;4.542;2023-04-24T01:47:46;4.95;;;3.50;;
80152;SDS011;69475;51.196;4.542;2023-04-24T01:50:12;4.10;;;3.10;;
80152;SDS011;69475;51.196;4.542;2023-04-24T01:52:38;5.05;;;3.30;;
80152;SDS011;69475;51.196;4.542;2023-04-24T01:55:04;5.40;;;3.42;;
80152;SDS011;69475;51.196;4.542;2023-04-24T01:57:32;4.22;;;3.20;;
80152;SDS011;69475;51.196;4.542;2023-04-24T01:59:58;4.97;;;3.10;;
80152;SDS011;69475;51.196;4.542;2023-04-24T02:02:24;5.78;;;3.85;;
80152;SDS011;69475;51.196;4.542;2023-04-24T02:04:53;5.07;;;3.47;;
80152;SDS011;69475;51.196;4.542;2023-04-24T02:07:19;4.55;;;3.53;;
80152;SDS011;69475;51.196;4.542;2023-04-24T02:09:45;4.75;;;3.28;;
80152;SDS011;69475;51.196;4.542;2023-04-24T02:12:11;5.00;;;3.38;;
80152;SDS011;69475;51.196;4.542;2023-04-24T02:14:36;4.03;;;3.50;;
80152;SDS011;69475;51.196;4.542;2023-04-24T02:17:02;5.18;;;3.42;;
80152;SDS011;69475;51.196;4.542;2023-04-24T02:19:28;4.90;;;3.33;;
80152;SDS011;69475;51.196;4.542;2023-04-24T02:21:54;5.25;;;3.72;;
80152;SDS011;69475;51.196;4.542;2023-04-24T02:24:19;4.43;;;3.30;;
80152;SDS011;69475;51.196;4.542;2023-04-24T02:26:45;5.28;;;3.60;;
80152;SDS011;69475;51.196;4.542;2023-04-24T02:29:11;4.18;;;3.17;;
80152;SDS011;69475;51.196;4.542;2023-04-24T02:31:37;4.75;;;3.47;;
80152;SDS011;69475;51.196;4.542;2023-04-24T02:34:02;4.60;;;3.45;;
80152;SDS011;69475;51.196;4.542;2023-04-24T02:36:28;4.88;;;3.30;;
80152;SDS011;69475;51.196;4.542;2023-04-24T02:38:53;5.45;;;3.55;;
80152;SDS011;69475;51.196;4.542;2023-04-24T02:41:19;4.22;;;3.30;;
80152;SDS011;69475;51.196;4.542;2023-04-24T02:43:45;5.63;;;3.38;;
80152;SDS011;69475;51.196;4.542;2023-04-24T02:46:10;4.75;;;3.83;;
80152;SDS011;69475;51.196;4.542;2023-04-24T02:48:36;5.18;;;3.53;;
80152;SDS011;69475;51.196;4.542;2023-04-24T02:51:02;5.45;;;3.30;;
80152;SDS011;69475;51.196;4.542;2023-04-24T02:53:28;5.03;;;3.58;;
80152;SDS011;69475;51.196;4.542;2023-04-24T02:55:55;3.97;;;3.30;;
80152;SDS011;69475;51.196;4.542;2023-04-24T02:58:21;4.57;;;3.35;;
80152;SDS011;69475;51.196;4.542;2023-04-24T03:00:47;4.30;;;3.35;;
80152;SDS011;69475;51.196;4.542;2023-04-24T03:03:14;4.18;;;3.17;;
80152;SDS011;69475;51.196;4.542;2023-04-24T03:05:40;4.32;;;3.20;;
80152;SDS011;69475;51.196;4.542;2023-04-24T03:08:06;4.22;;;3.50;;
80152;SDS011;69475;51.196;4.542;2023-04-24T03:10:31;4.38;;;3.50;;
80152;SDS011;69475;51.196;4.542;2023-04-24T03:12:57;4.93;;;3.72;;
80152;SDS011;69475;51.196;4.542;2023-04-24T03:15:23;4.13;;;3.28;;
80152;SDS011;69475;51.196;4.542;2023-04-24T03:17:48;4.40;;;3.45;;
80152;SDS011;69475;51.196;4.542;2023-04-24T03:20:14;4.72;;;3.28;;
80152;SDS011;69475;51.196;4.542;2023-04-24T03:22:40;3.95;;;3.33;;
80152;SDS011;69475;51.196;4.542;2023-04-24T03:25:06;4.30;;;3.28;;
80152;SDS011;69475;51.196;4.542;2023-04-24T03:27:34;3.85;;;3.25;;
80152;SDS011;69475;51.196;4.542;2023-04-24T03:30:00;3.97;;;3.05;;
80152;SDS011;69475;51.196;4.542;2023-04-24T03:32:26;4.55;;;3.58;;
80152;SDS011;69475;51.196;4.542;2023-04-24T03:34:51;4.97;;;3.50;;
80152;SDS011;69475;51.196;4.542;2023-04-24T03:37:17;4.60;;;3.40;;
80152;SDS011;69475;51.196;4.542;2023-04-24T03:39:43;4.80;;;3.28;;
80152;SDS011;69475;51.196;4.542;2023-04-24T03:42:08;3.80;;;3.13;;
80152;SDS011;69475;51.196;4.542;2023-04-24T03:44:34;4.72;;;3.50;;
80152;SDS011;69475;51.196;4.542;2023-04-24T03:47:01;4.45;;;3.35;;
80152;SDS011;69475;51.196;4.542;2023-04-24T03:49:27;4.18;;;3.30;;
80152;SDS011;69475;51.196;4.542;2023-04-24T03:51:52;4.82;;;3.50;;
80152;SDS011;69475;51.196;4.542;2023-04-24T03:54:18;4.35;;;3.50;;
80152;SDS011;69475;51.196;4.542;2023-04-24T03:56:44;3.47;;;3.17;;
80152;SDS011;69475;51.196;4.542;2023-04-24T03:59:10;4.65;;;3.20;;
80152;SDS011;69475;51.196;4.542;2023-04-24T04:01:36;4.65;;;3.40;;
80152;SDS011;69475;51.196;4.542;2023-04-24T04:04:05;3.53;;;3.08;;
80152;SDS011;69475;51.196;4.542;2023-04-24T04:06:31;3.88;;;3.30;;
80152;SDS011;69475;51.196;4.542;2023-04-24T04:08:57;3.60;;;2.97;;
80152;SDS011;69475;51.196;4.542;2023-04-24T04:11:23;5.70;;;3.35;;
80152;SDS011;69475;51.196;4.542;2023-04-24T04:13:49;3.70;;;3.10;;
80152;SDS011;69475;51.196;4.542;2023-04-24T04:16:15;3.83;;;3.03;;
80152;SDS011;69475;51.196;4.542;2023-04-24T04:18:44;3.75;;;3.17;;
80152;SDS011;69475;51.196;4.542;2023-04-24T04:21:10;4.38;;;3.00;;
80152;SDS011;69475;51.196;4.542;2023-04-24T04:23:36;4.43;;;3.10;;
80152;SDS011;69475;51.196;4.542;2023-04-24T04:26:05;4.45;;;3.20;;
80152;SDS011;69475;51.196;4.542;2023-04-24T04:28:30;4.15;;;3.03;;
80152;SDS011;69475;51.196;4.542;2023-04-24T04:30:57;3.42;;;3.05;;
80152;SDS011;69475;51.196;4.542;2023-04-24T04:33:23;3.22;;;2.92;;
80152;SDS011;69475;51.196;4.542;2023-04-24T04:35:50;4.07;;;2.88;;
80152;SDS011;69475;51.196;4.542;2023-04-24T04:38:21;4.00;;;3.28;;
80152;SDS011;69475;51.196;4.542;2023-04-24T04:40:47;3.10;;;2.70;;
80152;SDS011;69475;51.196;4.542;2023-04-24T04:43:13;4.00;;;2.80;;
80152;SDS011;69475;51.196;4.542;2023-04-24T04:45:40;3.45;;;2.50;;
80152;SDS011;69475;51.196;4.542;2023-04-24T04:48:06;3.05;;;2.70;;
80152;SDS011;69475;51.196;4.542;2023-04-24T04:50:34;4.05;;;2.78;;
80152;SDS011;69475;51.196;4.542;2023-04-24T04:53:03;2.95;;;2.50;;
80152;SDS011;69475;51.196;4.542;2023-04-24T04:55:28;2.67;;;2.30;;
80152;SDS011;69475;51.196;4.542;2023-04-24T04:57:54;2.65;;;2.30;;
80152;SDS011;69475;51.196;4.542;2023-04-24T05:00:21;3.55;;;2.40;;
80152;SDS011;69475;51.196;4.542;2023-04-24T05:02:46;3.25;;;2.55;;
80152;SDS011;69475;51.196;4.542;2023-04-24T05:05:12;3.25;;;2.60;;
80152;SDS011;69475;51.196;4.542;2023-04-24T05:07:38;3.33;;;2.47;;
80152;SDS011;69475;51.196;4.542;2023-04-24T05:10:04;2.97;;;2.50;;
80152;SDS011;69475;51.196;4.542;2023-04-24T05:12:30;3.10;;;2.55;;
80152;SDS011;69475;51.196;4.542;2023-04-24T05:14:55;2.83;;;2.35;;
80152;SDS011;69475;51.196;4.542;2023-04-24T05:17:21;3.30;;;2.35;;
80152;SDS011;69475;51.196;4.542;2023-04-24T05:19:46;2.85;;;2.58;;
80152;SDS011;69475;51.196;4.542;2023-04-24T05:22:13;3.58;;;2.67;;
80152;SDS011;69475;51.196;4.542;2023-04-24T05:24:39;3.85;;;2.65;;
80152;SDS011;69475;51.196;4.542;2023-04-24T05:27:04;5.28;;;2.80;;
80152;SDS011;69475;51.196;4.542;2023-04-24T05:29:31;3.15;;;2.53;;
80152;SDS011;69475;51.196;4.542;2023-04-24T05:31:58;3.22;;;2.70;;
80152;SDS011;69475;51.196;4.542;2023-04-24T05:34:24;4.13;;;3.00;;
80152;SDS011;69475;51.196;4.542;2023-04-24T05:36:50;3.85;;;3.00;;
80152;SDS011;69475;51.196;4.542;2023-04-24T05:39:16;4.57;;;3.10;;
80152;SDS011;69475;51.196;4.542;2023-04-24T05:41:42;4.45;;;2.92;;
80152;SDS011;69475;51.196;4.542;2023-04-24T05:44:08;4.15;;;2.80;;
80152;SDS011;69475;51.196;4.542;2023-04-24T05:46:34;3.13;;;2.65;;
80152;SDS011;69475;51.196;4.542;2023-04-24T05:49:00;3.30;;;2.78;;
80152;SDS011;69475;51.196;4.542;2023-04-24T05:51:26;4.47;;;2.60;;
80152;SDS011;69475;51.196;4.542;2023-04-24T05:53:51;4.10;;;3.08;;
80152;SDS011;69475;51.196;4.542;2023-04-24T05:56:17;4.22;;;3.00;;
80152;SDS011;69475;51.196;4.542;2023-04-24T05:58:43;5.15;;;3.10;;
80152;SDS011;69475;51.196;4.542;2023-04-24T06:01:10;5.38;;;2.90;;
80152;SDS011;69475;51.196;4.542;2023-04-24T06:03:37;4.90;;;3.03;;
80152;SDS011;69475;51.196;4.542;2023-04-24T06:06:03;5.90;;;3.20;;
80152;SDS011;69475;51.196;4.542;2023-04-24T06:08:29;5.20;;;3.22;;
80152;SDS011;69475;51.196;4.542;2023-04-24T06:10:55;4.38;;;3.10;;
80152;SDS011;69475;51.196;4.542;2023-04-24T06:13:20;3.97;;;3.03;;
80152;SDS011;69475;51.196;4.542;2023-04-24T06:15:46;8.57;;;3.65;;
80152;SDS011;69475;51.196;4.542;2023-04-24T06:18:12;7.50;;;3.53;;
80152;SDS011;69475;51.196;4.542;2023-04-24T06:20:37;7.65;;;3.85;;
80152;SDS011;69475;51.196;4.542;2023-04-24T06:23:03;5.72;;;3.50;;
80152;SDS011;69475;51.196;4.542;2023-04-24T06:25:29;5.93;;;3.42;;
80152;SDS011;69475;51.196;4.542;2023-04-24T06:27:55;6.72;;;3.38;;
80152;SDS011;69475;51.196;4.542;2023-04-24T06:30:22;7.05;;;4.20;;
80152;SDS011;69475;51.196;4.542;2023-04-24T06:32:48;6.68;;;3.92;;
80152;SDS011;69475;51.196;4.542;2023-04-24T06:35:13;6.45;;;4.10;;
80152;SDS011;69475;51.196;4.542;2023-04-24T06:37:39;6.93;;;4.00;;
80152;SDS011;69475;51.196;4.542;2023-04-24T06:40:06;8.45;;;4.00;;
80152;SDS011;69475;51.196;4.542;2023-04-24T06:42:32;10.15;;;4.00;;
80152;SDS011;69475;51.196;4.542;2023-04-24T06:44:59;6.63;;;4.10;;
80152;SDS011;69475;51.196;4.542;2023-04-24T06:47:26;8.00;;;4.05;;
80152;SDS011;69475;51.196;4.542;2023-04-24T06:49:51;8.43;;;4.03;;
80152;SDS011;69475;51.196;4.542;2023-04-24T06:52:17;7.95;;;4.18;;
80152;SDS011;69475;51.196;4.542;2023-04-24T06:54:44;9.95;;;4.40;;
80152;SDS011;69475;51.196;4.542;2023-04-24T06:57:10;13.95;;;5.15;;
80152;SDS011;69475;51.196;4.542;2023-04-24T06:59:36;8.95;;;4.60;;
80152;SDS011;69475;51.196;4.542;2023-04-24T07:02:01;8.25;;;4.28;;
80152;SDS011;69475;51.196;4.542;2023-04-24T07:04:28;10.07;;;4.22;;
80152;SDS011;69475;51.196;4.542;2023-04-24T07:06:54;7.45;;;4.28;;
80152;SDS011;69475;51.196;4.542;2023-04-24T07:09:21;7.32;;;4.30;;
80152;SDS011;69475;51.196;4.542;2023-04-24T07:11:48;10.15;;;4.43;;
80152;SDS011;69475;51.196;4.542;2023-04-24T07:14:14;8.45;;;4.20;;
80152;SDS011;69475;51.196;4.542;2023-04-24T07:16:41;7.90;;;4.25;;
80152;SDS011;69475;51.196;4.542;2023-04-24T07:19:07;10.27;;;4.47;;
80152;SDS011;69475;51.196;4.542;2023-04-24T07:21:33;7.15;;;4.13;;
80152;SDS011;69475;51.196;4.542;2023-04-24T07:23:58;10.57;;;3.97;;
80152;SDS011;69475;51.196;4.542;2023-04-24T07:26:25;6.90;;;4.50;;
80152;SDS011;69475;51.196;4.542;2023-04-24T07:28:51;8.25;;;4.07;;
80152;SDS011;69475;51.196;4.542;2023-04-24T07:31:17;9.02;;;3.92;;
80152;SDS011;69475;51.196;4.542;2023-04-24T07:33:43;11.65;;;4.03;;
80152;SDS011;69475;51.196;4.542;2023-04-24T07:36:08;8.93;;;4.10;;
80152;SDS011;69475;51.196;4.542;2023-04-24T07:38:40;7.75;;;3.75;;
80152;SDS011;69475;51.196;4.542;2023-04-24T07:43:38;6.85;;;4.43;;
80152;SDS011;69475;51.196;4.542;2023-04-24T07:46:04;7.35;;;3.70;;
80152;SDS011;69475;51.196;4.542;2023-04-24T07:48:29;7.00;;;4.07;;
80152;SDS011;69475;51.196;4.542;2023-04-24T07:50:55;10.27;;;4.03;;
80152;SDS011;69475;51.196;4.542;2023-04-24T07:53:21;9.05;;;3.92;;
80152;SDS011;69475;51.196;4.542;2023-04-24T07:55:46;8.02;;;4.00;;
80152;SDS011;69475;51.196;4.542;2023-04-24T07:58:12;5.88;;;3.65;;
80152;SDS011;69475;51.196;4.542;2023-04-24T08:00:38;7.53;;;3.60;;
80152;SDS011;69475;51.196;4.542;2023-04-24T08:03:03;8.60;;;3.95;;
80152;SDS011;69475;51.196;4.542;2023-04-24T08:05:29;6.30;;;3.70;;
80152;SDS011;69475;51.196;4.542;2023-04-24T08:07:56;6.05;;;3.35;;
80152;SDS011;69475;51.196;4.542;2023-04-24T08:10:22;7.38;;;3.70;;
80152;SDS011;69475;51.196;4.542;2023-04-24T08:12:48;6.10;;;3.60;;
80152;SDS011;69475;51.196;4.542;2023-04-24T08:15:14;7.13;;;3.55;;
80152;SDS011;69475;51.196;4.542;2023-04-24T08:17:39;6.95;;;3.53;;
80152;SDS011;69475;51.196;4.542;2023-04-24T08:20:06;7.03;;;4.05;;
80152;SDS011;69475;51.196;4.542;2023-04-24T08:22:38;6.57;;;3.53;;
80152;SDS011;69475;51.196;4.542;2023-04-24T08:25:08;5.50;;;3.30;;
80152;SDS011;69475;51.196;4.542;2023-04-24T08:27:35;7.72;;;3.63;;
80152;SDS011;69475;51.196;4.542;2023-04-24T08:30:04;7.85;;;3.40;;
80152;SDS011;69475;51.196;4.542;2023-04-24T08:32:30;8.00;;;3.90;;
80152;SDS011;69475;51.196;4.542;2023-04-24T08:34:57;5.05;;;3.60;;
80152;SDS011;69475;51.196;4.542;2023-04-24T08:37:23;7.15;;;3.70;;
80152;SDS011;69475;51.196;4.542;2023-04-24T08:39:49;6.65;;;3.75;;
80152;SDS011;69475;51.196;4.542;2023-04-24T08:42:15;7.47;;;3.40;;
80152;SDS011;69475;51.196;4.542;2023-04-24T08:44:42;7.18;;;3.65;;
80152;SDS011;69475;51.196;4.542;2023-04-24T08:47:09;6.30;;;3.50;;
80152;SDS011;69475;51.196;4.542;2023-04-24T08:49:36;9.10;;;3.70;;
80152;SDS011;69475;51.196;4.542;2023-04-24T08:52:02;7.72;;;3.47;;
80152;SDS011;69475;51.196;4.542;2023-04-24T08:54:29;6.70;;;3.40;;
80152;SDS011;69475;51.196;4.542;2023-04-24T08:57:00;7.13;;;3.47;;
80152;SDS011;69475;51.196;4.542;2023-04-24T08:59:27;6.03;;;3.53;;
80152;SDS011;69475;51.196;4.542;2023-04-24T09:01:53;7.18;;;3.28;;
80152;SDS011;69475;51.196;4.542;2023-04-24T09:04:21;5.47;;;3.30;;
80152;SDS011;69475;51.196;4.542;2023-04-24T09:06:49;6.30;;;3.20;;
80152;SDS011;69475;51.196;4.542;2023-04-24T09:09:23;7.93;;;3.50;;
80152;SDS011;69475;51.196;4.542;2023-04-24T09:11:51;5.13;;;3.63;;
80152;SDS011;69475;51.196;4.542;2023-04-24T09:14:19;7.43;;;3.60;;
80152;SDS011;69475;51.196;4.542;2023-04-24T09:16:45;6.03;;;3.40;;
80152;SDS011;69475;51.196;4.542;2023-04-24T09:19:12;7.88;;;3.28;;
80152;SDS011;69475;51.196;4.542;2023-04-24T09:21:37;5.10;;;3.22;;
80152;SDS011;69475;51.196;4.542;2023-04-24T09:24:04;5.18;;;3.10;;
80152;SDS011;69475;51.196;4.542;2023-04-24T09:26:33;6.13;;;2.95;;
80152;SDS011;69475;51.196;4.542;2023-04-24T09:29:00;5.93;;;3.40;;
80152;SDS011;69475;51.196;4.542;2023-04-24T09:31:27;4.75;;;3.22;;
80152;SDS011;69475;51.196;4.542;2023-04-24T09:33:55;6.30;;;3.30;;
80152;SDS011;69475;51.196;4.542;2023-04-24T09:36:33;6.28;;;3.50;;
80152;SDS011;69475;51.196;4.542;2023-04-24T09:39:13;4.28;;;3.08;;
80152;SDS011;69475;51.196;4.542;2023-04-24T09:44:21;4.25;;;3.10;;
80152;SDS011;69475;51.196;4.542;2023-04-24T09:46:51;5.68;;;2.90;;
80152;SDS011;69475;51.196;4.542;2023-04-24T09:49:37;5.53;;;3.30;;
80152;SDS011;69475;51.196;4.542;2023-04-24T09:54:31;6.40;;;3.28;;
80152;SDS011;69475;51.196;4.542;2023-04-24T09:56:58;5.30;;;3.10;;
80152;SDS011;69475;51.196;4.542;2023-04-24T09:59:25;8.38;;;3.42;;
80152;SDS011;69475;51.196;4.542;2023-04-24T10:01:51;5.20;;;3.08;;
80152;SDS011;69475;51.196;4.542;2023-04-24T10:06:50;5.32;;;2.85;;
80152;SDS011;69475;51.196;4.542;2023-04-24T10:09:18;7.60;;;3.30;;
80152;SDS011;69475;51.196;4.542;2023-04-24T10:11:46;4.43;;;2.97;;
80152;SDS011;69475;51.196;4.542;2023-04-24T10:14:17;6.68;;;3.30;;
80152;SDS011;69475;51.196;4.542;2023-04-24T10:16:44;6.70;;;3.20;;
80152;SDS011;69475;51.196;4.542;2023-04-24T10:19:11;5.05;;;3.00;;
80152;SDS011;69475;51.196;4.542;2023-04-24T10:21:42;5.13;;;2.78;;
80152;SDS011;69475;51.196;4.542;2023-04-24T10:24:12;8.02;;;2.92;;
80152;SDS011;69475;51.196;4.542;2023-04-24T10:26:42;5.43;;;2.80;;
80152;SDS011;69475;51.196;4.542;2023-04-24T10:29:10;6.38;;;3.35;;
80152;SDS011;69475;51.196;4.542;2023-04-24T10:31:40;4.95;;;3.05;;
80152;SDS011;69475;51.196;4.542;2023-04-24T10:34:07;8.73;;;3.58;;
80152;SDS011;69475;51.196;4.542;2023-04-24T10:36:35;5.40;;;2.75;;
80152;SDS011;69475;51.196;4.542;2023-04-24T10:39:05;5.68;;;3.20;;
80152;SDS011;69475;51.196;4.542;2023-04-24T10:41:36;5.68;;;3.17;;
80152;SDS011;69475;51.196;4.542;2023-04-24T10:44:12;5.43;;;2.90;;
80152;SDS011;69475;51.196;4.542;2023-04-24T10:46:43;4.78;;;3.10;;
80152;SDS011;69475;51.196;4.542;2023-04-24T10:49:17;5.68;;;2.78;;
80152;SDS011;69475;51.196;4.542;2023-04-24T10:51:54;5.40;;;3.55;;
80152;SDS011;69475;51.196;4.542;2023-04-24T10:59:51;7.65;;;3.13;;
80152;SDS011;69475;51.196;4.542;2023-04-24T11:02:37;5.30;;;3.05;;
80152;SDS011;69475;51.196;4.542;2023-04-24T11:05:04;5.78;;;3.00;;
80152;SDS011;69475;51.196;4.542;2023-04-24T11:07:38;4.60;;;2.72;;
80152;SDS011;69475;51.196;4.542;2023-04-24T11:10:33;5.20;;;3.00;;
80152;SDS011;69475;51.196;4.542;2023-04-24T11:13:02;4.38;;;3.05;;
80152;SDS011;69475;51.196;4.542;2023-04-24T11:15:28;3.90;;;2.88;;
80152;SDS011;69475;51.196;4.542;2023-04-24T11:17:55;5.45;;;3.10;;
80152;SDS011;69475;51.196;4.542;2023-04-24T11:20:22;6.47;;;3.35;;
80152;SDS011;69475;51.196;4.542;2023-04-24T11:22:50;6.05;;;3.08;;
80152;SDS011;69475;51.196;4.542;2023-04-24T11:25:19;4.80;;;2.97;;
80152;SDS011;69475;51.196;4.542;2023-04-24T11:27:47;5.57;;;2.80;;
80152;SDS011;69475;51.196;4.542;2023-04-24T11:30:18;4.13;;;2.80;;
80152;SDS011;69475;51.196;4.542;2023-04-24T11:32:48;5.38;;;2.80;;
80152;SDS011;69475;51.196;4.542;2023-04-24T11:37:46;6.85;;;4.20;;
80152;SDS011;69475;51.196;4.542;2023-04-24T11:40:17;5.35;;;3.83;;
80152;SDS011;69475;51.196;4.542;2023-04-24T11:42:46;4.85;;;3.60;;
80152;SDS011;69475;51.196;4.542;2023-04-24T11:45:14;5.88;;;3.50;;
80152;SDS011;69475;51.196;4.542;2023-04-24T11:47:42;6.20;;;3.63;;
80152;SDS011;69475;51.196;4.542;2023-04-24T11:50:10;5.43;;;3.50;;
80152;SDS011;69475;51.196;4.542;2023-04-24T11:52:38;6.70;;;3.60;;
80152;SDS011;69475;51.196;4.542;2023-04-24T11:57:46;5.95;;;3.63;;
80152;SDS011;69475;51.196;4.542;2023-04-24T12:00:17;4.28;;;3.17;;
80152;SDS011;69475;51.196;4.542;2023-04-24T12:02:45;4.60;;;3.30;;
80152;SDS011;69475;51.196;4.542;2023-04-24T12:05:24;5.18;;;3.15;;
80152;SDS011;69475;51.196;4.542;2023-04-24T12:07:51;4.35;;;3.55;;
80152;SDS011;69475;51.196;4.542;2023-04-24T12:10:21;5.15;;;3.20;;
80152;SDS011;69475;51.196;4.542;2023-04-24T12:12:48;4.68;;;3.00;;
80152;SDS011;69475;51.196;4.542;2023-04-24T12:15:16;5.07;;;3.28;;
80152;SDS011;69475;51.196;4.542;2023-04-24T12:17:43;4.68;;;3.10;;
80152;SDS011;69475;51.196;4.542;2023-04-24T12:20:10;5.72;;;3.00;;
80152;SDS011;69475;51.196;4.542;2023-04-24T12:22:46;4.15;;;2.88;;
80152;SDS011;69475;51.196;4.542;2023-04-24T12:25:27;4.68;;;3.30;;
80152;SDS011;69475;51.196;4.542;2023-04-24T12:28:15;4.40;;;3.20;;
80152;SDS011;69475;51.196;4.542;2023-04-24T12:30:43;4.88;;;2.97;;
80152;SDS011;69475;51.196;4.542;2023-04-24T12:33:17;4.40;;;2.90;;
80152;SDS011;69475;51.196;4.542;2023-04-24T12:35:44;4.60;;;3.00;;
80152;SDS011;69475;51.196;4.542;2023-04-24T12:38:12;4.50;;;3.10;;
80152;SDS011;69475;51.196;4.542;2023-04-24T12:40:39;4.65;;;3.10;;
80152;SDS011;69475;51.196;4.542;2023-04-24T12:43:15;4.88;;;3.10;;
80152;SDS011;69475;51.196;4.542;2023-04-24T12:45:45;3.67;;;2.70;;
80152;SDS011;69475;51.196;4.542;2023-04-24T12:48:12;4.60;;;2.60;;
80152;SDS011;69475;51.196;4.542;2023-04-24T12:50:39;6.18;;;3.05;;
80152;SDS011;69475;51.196;4.542;2023-04-24T12:53:05;4.18;;;2.90;;
80152;SDS011;69475;51.196;4.542;2023-04-24T12:55:33;3.97;;;2.90;;
80152;SDS011;69475;51.196;4.542;2023-04-24T12:57:58;4.45;;;3.10;;
80152;SDS011;69475;51.196;4.542;2023-04-24T13:00:24;4.70;;;3.00;;
80152;SDS011;69475;51.196;4.542;2023-04-24T13:02:50;4.20;;;2.65;;
80152;SDS011;69475;51.196;4.542;2023-04-24T13:05:16;3.83;;;2.75;;
80152;SDS011;69475;51.196;4.542;2023-04-24T13:07:42;4.38;;;2.72;;
80152;SDS011;69475;51.196;4.542;2023-04-24T13:10:07;4.13;;;3.00;;
80152;SDS011;69475;51.196;4.542;2023-04-24T13:12:34;3.72;;;2.80;;
80152;SDS011;69475;51.196;4.542;2023-04-24T13:15:00;5.03;;;2.80;;
80152;SDS011;69475;51.196;4.542;2023-04-24T13:17:25;3.72;;;2.75;;
80152;SDS011;69475;51.196;4.542;2023-04-24T13:19:51;4.75;;;2.80;;
80152;SDS011;69475;51.196;4.542;2023-04-24T13:22:19;5.00;;;3.17;;
80152;SDS011;69475;51.196;4.542;2023-04-24T13:24:45;4.47;;;3.00;;
80152;SDS011;69475;51.196;4.542;2023-04-24T13:27:13;5.35;;;3.28;;
80152;SDS011;69475;51.196;4.542;2023-04-24T13:29:39;4.88;;;3.03;;
80152;SDS011;69475;51.196;4.542;2023-04-24T13:32:05;10.95;;;3.42;;
80152;SDS011;69475;51.196;4.542;2023-04-24T13:34:31;6.32;;;3.17;;
80152;SDS011;69475;51.196;4.542;2023-04-24T13:36:57;4.63;;;3.10;;
80152;SDS011;69475;51.196;4.542;2023-04-24T13:39:23;4.38;;;3.10;;
80152;SDS011;69475;51.196;4.542;2023-04-24T13:41:50;6.63;;;3.40;;
80152;SDS011;69475;51.196;4.542;2023-04-24T13:44:17;4.25;;;3.00;;
80152;SDS011;69475;51.196;4.542;2023-04-24T13:46:44;5.43;;;3.25;;
80152;SDS011;69475;51.196;4.542;2023-04-24T13:49:11;6.28;;;3.22;;
80152;SDS011;69475;51.196;4.542;2023-04-24T13:51:38;4.60;;;3.00;;
80152;SDS011;69475;51.196;4.542;2023-04-24T13:54:05;4.13;;;2.83;;
80152;SDS011;69475;51.196;4.542;2023-04-24T13:56:30;4.82;;;2.90;;
80152;SDS011;69475;51.196;4.542;2023-04-24T13:58:56;4.07;;;3.22;;
80152;SDS011;69475;51.196;4.542;2023-04-24T14:01:22;4.82;;;2.97;;
80152;SDS011;69475;51.196;4.542;2023-04-24T14:03:50;3.85;;;2.65;;
80152;SDS011;69475;51.196;4.542;2023-04-24T14:06:19;3.88;;;2.90;;
80152;SDS011;69475;51.196;4.542;2023-04-24T14:08:45;4.90;;;2.80;;
80152;SDS011;69475;51.196;4.542;2023-04-24T14:11:11;4.63;;;3.05;;
80152;SDS011;69475;51.196;4.542;2023-04-24T14:13:37;4.93;;;2.78;;
80152;SDS011;69475;51.196;4.542;2023-04-24T14:16:03;4.25;;;2.95;;
80152;SDS011;69475;51.196;4.542;2023-04-24T14:18:30;6.35;;;2.92;;
80152;SDS011;69475;51.196;4.542;2023-04-24T14:20:55;5.22;;;2.95;;
80152;SDS011;69475;51.196;4.542;2023-04-24T14:23:21;4.85;;;2.95;;
80152;SDS011;69475;51.196;4.542;2023-04-24T14:25:47;3.85;;;2.78;;
80152;SDS011;69475;51.196;4.542;2023-04-24T14:28:16;6.25;;;2.90;;
80152;SDS011;69475;51.196;4.542;2023-04-24T14:30:42;4.90;;;2.90;;
80152;SDS011;69475;51.196;4.542;2023-04-24T14:33:08;3.97;;;2.83;;
80152;SDS011;69475;51.196;4.542;2023-04-24T14:35:34;5.60;;;2.80;;
80152;SDS011;69475;51.196;4.542;2023-04-24T14:38:00;4.15;;;2.70;;
80152;SDS011;69475;51.196;4.542;2023-04-24T14:40:26;4.18;;;3.00;;
80152;SDS011;69475;51.196;4.542;2023-04-24T14:42:52;4.90;;;2.90;;
80152;SDS011;69475;51.196;4.542;2023-04-24T14:45:18;3.40;;;2.45;;
80152;SDS011;69475;51.196;4.542;2023-04-24T14:47:44;3.80;;;2.70;;
80152;SDS011;69475;51.196;4.542;2023-04-24T14:50:10;3.97;;;2.50;;
80152;SDS011;69475;51.196;4.542;2023-04-24T14:52:37;4.75;;;2.80;;
80152;SDS011;69475;51.196;4.542;2023-04-24T14:55:03;4.90;;;2.75;;
80152;SDS011;69475;51.196;4.542;2023-04-24T14:57:31;5.15;;;3.05;;
80152;SDS011;69475;51.196;4.542;2023-04-24T14:59:58;5.20;;;2.90;;
80152;SDS011;69475;51.196;4.542;2023-04-24T15:02:23;6.90;;;3.10;;
80152;SDS011;69475;51.196;4.542;2023-04-24T15:04:49;4.57;;;2.90;;
80152;SDS011;69475;51.196;4.542;2023-04-24T15:07:15;5.75;;;2.90;;